createdAt,value
2023-04-24T00:00:55.113Z,63.8
2023-04-24T00:02:55.326Z,63.2
2023-04-24T00:04:55.526Z,63.2
2023-04-24T00:06:55.363Z,64
2023-04-24T00:08:55.347Z,64.6
2023-04-24T00:10:55.527Z,63
2023-04-24T00:12:55.553Z,63
2023-04-24T00:14:55.666Z,63.4
2023-04-24T00:16:55.805Z,63.2
2023-04-24T00:18:55.826Z,63.2
2023-04-24T00:20:55.957Z,63.2
2023-04-24T00:22:56.253Z,63.2
2023-04-24T00:24:56.245Z,63.2
2023-04-24T00:26:56.186Z,64.2
2023-04-24T00:28:56.362Z,63.3
2023-04-24T00:30:56.625Z,63.3
2023-04-24T00:32:57.654Z,63.3
2023-04-24T00:34:56.763Z,63.3
2023-04-24T00:36:56.632Z,63
2023-04-24T00:38:56.862Z,63
2023-04-24T00:40:56.882Z,64.7
2023-04-24T00:42:57.107Z,64.7
2023-04-24T00:44:57.794Z,62.9
2023-04-24T00:46:58.511Z,65.7
2023-04-24T00:48:57.170Z,64
2023-04-24T00:50:57.920Z,63.4
2023-04-24T00:52:58.137Z,63.4
2023-04-24T00:54:57.646Z,64
2023-04-24T00:56:57.662Z,64
2023-04-24T00:58:58.087Z,64.6
2023-04-24T01:00:58.978Z,65.2
2023-04-24T01:03:01.105Z,63.6
2023-04-24T01:04:57.963Z,64.1
2023-04-24T01:06:58.085Z,64.6
2023-04-24T01:08:59.056Z,65.3
2023-04-24T01:10:58.337Z,64.4
2023-04-24T01:12:58.686Z,64.4
2023-04-24T01:14:58.387Z,64.9
2023-04-24T01:16:58.334Z,65
2023-04-24T01:18:58.247Z,66
2023-04-24T01:20:59.886Z,66
2023-04-24T01:22:58.646Z,66
2023-04-24T01:24:58.711Z,65.2
2023-04-24T01:26:58.857Z,64.7
2023-04-24T01:28:58.878Z,64.7
2023-04-24T01:30:58.864Z,64.7
2023-04-24T01:32:59.714Z,64.7
2023-04-24T01:34:58.974Z,64.7
2023-04-24T01:36:59.756Z,65.4
2023-04-24T01:39:00.241Z,65.4
2023-04-24T01:40:59.122Z,65.4
2023-04-24T01:42:59.274Z,65.4
2023-04-24T01:45:00.052Z,65.3
2023-04-24T01:47:00.776Z,65.2
2023-04-24T01:49:01.039Z,65.2
2023-04-24T01:51:00.066Z,65.9
2023-04-24T01:52:59.536Z,65.9
2023-04-24T01:55:00.777Z,65.9
2023-04-24T01:57:00.997Z,65.3
2023-04-24T01:59:01.024Z,66
2023-04-24T02:01:00.268Z,66
2023-04-24T02:03:01.069Z,66
2023-04-24T02:04:59.706Z,66
2023-04-24T02:07:00.238Z,65.7
2023-04-24T02:09:00.323Z,65.7
2023-04-24T02:10:59.952Z,65.6
2023-04-24T02:12:59.983Z,66.2
2023-04-24T02:15:00.214Z,65.6
2023-04-24T02:17:00.223Z,65.9
2023-04-24T02:19:00.190Z,65.9
2023-04-24T02:21:00.168Z,65.9
2023-04-24T02:23:00.256Z,65.5
2023-04-24T02:25:00.449Z,66.1
2023-04-24T02:27:00.780Z,65.9
2023-04-24T02:29:00.843Z,65.9
2023-04-24T02:31:00.705Z,66.9
2023-04-24T02:33:01.827Z,66.3
2023-04-24T02:35:00.872Z,66.3
2023-04-24T02:37:01.208Z,66
2023-04-24T02:39:00.989Z,67.1
2023-04-24T02:41:00.899Z,66.1
2023-04-24T02:43:01.036Z,66.1
2023-04-24T02:45:01.365Z,66.1
2023-04-24T02:47:01.179Z,66
2023-04-24T02:49:01.362Z,66
2023-04-24T02:51:01.391Z,66
2023-04-24T02:53:01.489Z,66
2023-04-24T02:55:01.718Z,66
2023-04-24T02:57:01.889Z,65.8
2023-04-24T02:59:01.641Z,65.8
2023-04-24T03:01:01.763Z,65.3
2023-04-24T03:03:02.046Z,65.3
2023-04-24T03:05:01.963Z,65.3
2023-04-24T03:07:01.864Z,64.4
2023-04-24T03:09:02.008Z,63.5
2023-04-24T03:11:02.126Z,61.8
2023-04-24T03:13:02.215Z,60.9
2023-04-24T03:15:02.731Z,61.9
2023-04-24T03:17:02.389Z,60.5
2023-04-24T03:19:03.151Z,60.5
2023-04-24T03:21:02.824Z,59.9
2023-04-24T03:23:03.228Z,59.4
2023-04-24T03:25:04.865Z,59.9
2023-04-24T03:27:20.340Z,59.9
2023-04-24T03:29:03.448Z,59.1
2023-04-24T03:31:06.161Z,59.1
2023-04-24T03:33:06.493Z,59.5
2023-04-24T03:35:04.787Z,61.7
2023-04-24T03:37:06.244Z,59.3
2023-04-24T03:39:08.592Z,58.4
2023-04-24T03:41:10.061Z,59.9
2023-04-24T03:43:06.258Z,58.5
2023-04-24T03:45:08.122Z,59
2023-04-24T03:47:06.076Z,59
2023-04-24T03:49:08.216Z,59
2023-04-24T03:51:06.719Z,59
2023-04-24T03:53:10.292Z,58.4
2023-04-24T03:55:11.836Z,58.4
2023-04-24T03:57:08.102Z,59
2023-04-24T03:59:08.186Z,58.5
2023-04-24T04:01:30.191Z,59.1
2023-04-24T04:03:08.629Z,58.6
2023-04-24T04:05:57.908Z,58.8
2023-04-24T04:06:00.522Z,58.8
2023-04-24T04:07:09.031Z,59.3
2023-04-24T04:09:09.871Z,59.3
2023-04-24T04:11:09.524Z,59.3
2023-04-24T04:13:10.318Z,58.8
2023-04-24T04:15:10.731Z,58.9
2023-04-24T04:17:10.944Z,58.9
2023-04-24T04:19:11.496Z,58.9
2023-04-24T04:21:11.828Z,58.9
2023-04-24T04:23:21.510Z,59.4
2023-04-24T04:25:12.927Z,60
2023-04-24T04:27:19.456Z,60.4
2023-04-24T04:29:18.045Z,56.5
2023-04-24T04:31:13.516Z,55.9
2023-04-24T04:33:13.941Z,57.3
2023-04-24T04:35:14.486Z,55.4
2023-04-24T04:37:27.215Z,55.5
2023-04-24T04:39:22.145Z,55.5
2023-04-24T04:41:15.633Z,56.3
2023-04-24T04:43:19.869Z,54.9
2023-04-24T04:45:29.471Z,54.9
2023-04-24T04:47:17.778Z,54.3
2023-04-24T04:49:17.952Z,53.5
2023-04-24T04:51:18.621Z,55.3
2023-04-24T04:53:19.516Z,48.9
2023-04-24T04:55:34.491Z,48.9
2023-04-24T04:57:20.172Z,48.6
2023-04-24T04:59:21.138Z,47.4
2023-04-24T05:01:21.956Z,48.6
2023-04-24T05:03:22.992Z,46.7
2023-04-24T05:05:22.963Z,47.1
2023-04-24T05:07:24.968Z,46.2
2023-04-24T05:09:26.921Z,47.8
2023-04-24T05:11:24.754Z,42.1
2023-04-24T05:13:36.207Z,41.4
2023-04-24T05:15:25.449Z,39.7
2023-04-24T05:17:27.383Z,39.7
2023-04-24T05:19:26.574Z,39.7
2023-04-24T05:21:27.041Z,39.1
2023-04-24T05:23:28.065Z,39
2023-04-24T05:25:32.422Z,39
2023-04-24T05:27:29.147Z,38.2
2023-04-24T05:29:29.832Z,37.5
2023-04-24T05:31:30.599Z,37.5
2023-04-24T05:33:31.171Z,36.3
2023-04-24T05:35:31.682Z,37.3
2023-04-24T05:37:32.548Z,37
2023-04-24T05:39:33.792Z,35.6
2023-04-24T05:41:33.749Z,36.1
2023-04-24T05:43:34.634Z,35.5
2023-04-24T05:45:35.275Z,36.1
2023-04-24T05:47:36.273Z,35.4
2023-04-24T05:49:37.094Z,34.6
2023-04-24T05:51:37.489Z,35.3
2023-04-24T05:53:38.057Z,35.8
2023-04-24T05:55:38.906Z,35.3
2023-04-24T05:57:40.507Z,34.1
2023-04-24T05:59:41.405Z,34.1
2023-04-24T06:01:45.449Z,33.9
2023-04-24T06:03:42.671Z,34.7
2023-04-24T06:05:42.600Z,34.8
2023-04-24T06:07:43.303Z,33.9
2023-04-24T06:09:43.935Z,33.4
2023-04-24T06:11:44.753Z,33.9
2023-04-24T06:14:01.012Z,34
2023-04-24T06:15:51.917Z,34
2023-04-24T06:17:48.357Z,34
2023-04-24T06:19:47.454Z,34
2023-04-24T06:21:47.903Z,32.7
2023-04-24T06:23:49.130Z,32.7
2023-04-24T06:25:49.823Z,33.2
2023-04-24T06:27:50.087Z,33.2
2023-04-24T06:29:51.596Z,33.2
2023-04-24T06:31:51.602Z,32.2
2023-04-24T06:33:52.184Z,32.3
2023-04-24T06:35:52.953Z,32.3
2023-04-24T06:37:53.748Z,31.4
2023-04-24T06:39:54.363Z,31.9
2023-04-24T06:41:55.147Z,31.9
2023-04-24T06:43:55.952Z,31.8
2023-04-24T06:45:57.454Z,31.6
2023-04-24T06:47:57.584Z,31.6
2023-04-24T06:49:59.120Z,31.6
2023-04-24T06:51:58.798Z,31.6
2023-04-24T06:53:59.921Z,31.2
2023-04-24T06:56:00.568Z,31.2
2023-04-24T06:58:01.116Z,31.2
2023-04-24T07:00:01.593Z,30.9
2023-04-24T07:02:02.437Z,32.3
2023-04-24T07:04:03.333Z,30.9
2023-04-24T07:06:04.463Z,31.7
2023-04-24T07:08:04.518Z,30.6
2023-04-24T07:10:06.229Z,30.7
2023-04-24T07:12:05.775Z,29.8
2023-04-24T07:14:06.479Z,32.1
2023-04-24T07:16:07.186Z,30
2023-04-24T07:18:07.992Z,30.8
2023-04-24T07:20:09.170Z,29.9
2023-04-24T07:22:08.967Z,29.9
2023-04-24T07:24:09.594Z,30
2023-04-24T07:26:10.219Z,30.2
2023-04-24T07:28:10.783Z,30.2
2023-04-24T07:30:11.936Z,30.6
2023-04-24T07:32:11.666Z,30.6
2023-04-24T07:34:12.163Z,30
2023-04-24T07:36:12.652Z,30.7
2023-04-24T07:38:13.335Z,32
2023-04-24T07:40:13.996Z,32
2023-04-24T07:42:13.946Z,32.3
2023-04-24T07:44:14.608Z,32.9
2023-04-24T07:46:14.969Z,32.2
2023-04-24T07:48:15.332Z,31
2023-04-24T07:50:15.890Z,31
2023-04-24T07:52:16.271Z,31
2023-04-24T07:54:16.850Z,31
2023-04-24T07:56:17.248Z,30.3
2023-04-24T07:58:17.639Z,30.3
2023-04-24T08:00:18.675Z,30.8
2023-04-24T08:02:18.597Z,30
2023-04-24T08:04:19.273Z,32.7
2023-04-24T08:06:19.457Z,32.1
2023-04-24T08:08:22.749Z,31.5
2023-04-24T08:10:21.474Z,30.5
2023-04-24T08:12:20.827Z,30.5
2023-04-24T08:14:21.370Z,31.3
2023-04-24T08:16:21.725Z,30.7
2023-04-24T08:18:22.835Z,30.7
2023-04-24T08:20:22.635Z,29.4
2023-04-24T08:22:22.967Z,30.1
2023-04-24T08:24:23.772Z,30.1
2023-04-24T08:26:24.236Z,30.6
2023-04-24T08:28:24.557Z,31.1
2023-04-24T08:30:24.905Z,30.4
2023-04-24T08:32:25.369Z,30.4
2023-04-24T08:34:25.794Z,30.4
2023-04-24T08:36:33.166Z,30.3
2023-04-24T08:38:26.793Z,30.3
2023-04-24T08:40:29.141Z,30.3
2023-04-24T08:42:30.609Z,30.3
2023-04-24T08:44:28.134Z,30.3
2023-04-24T08:46:30.272Z,30.6
2023-04-24T08:48:31.899Z,31.7
2023-04-24T08:50:29.966Z,31.3
2023-04-24T08:52:30.277Z,31.3
2023-04-24T08:54:31.006Z,31.1
2023-04-24T08:56:33.780Z,31
2023-04-24T08:58:32.856Z,31
2023-04-24T09:00:32.332Z,31.5
2023-04-24T09:02:32.214Z,31.5
2023-04-24T09:04:35.543Z,32.1
2023-04-24T09:06:33.215Z,31.2
2023-04-24T09:08:33.911Z,31.3
2023-04-24T09:10:35.760Z,31.3
2023-04-24T09:12:35.137Z,31.3
2023-04-24T09:14:35.276Z,31.3
2023-04-24T09:16:36.682Z,30.5
2023-04-24T09:18:35.643Z,30.5
2023-04-24T09:20:51.309Z,30.5
2023-04-24T09:22:37.228Z,30.5
2023-04-24T09:24:36.959Z,30.5
2023-04-24T09:26:37.574Z,31.8
2023-04-24T09:28:39.296Z,32.9
2023-04-24T09:30:38.265Z,32.9
2023-04-24T09:32:38.938Z,33.4
2023-04-24T09:34:39.071Z,33.4
2023-04-24T09:36:41.980Z,32.8
2023-04-24T09:38:39.959Z,32.8
2023-04-24T09:40:41.644Z,32
2023-04-24T09:42:43.637Z,32.9
2023-04-24T09:44:41.492Z,32.9
2023-04-24T09:46:42.336Z,33.5
2023-04-24T09:48:42.045Z,32.4
2023-04-24T09:50:46.902Z,31.5
2023-04-24T09:52:44.781Z,32.3
2023-04-24T09:54:53.700Z,33.1
2023-04-24T09:56:45.037Z,32.7
2023-04-24T09:58:44.848Z,32
2023-04-24T10:00:46.469Z,32
2023-04-24T10:02:45.268Z,33.1
2023-04-24T10:04:54.888Z,32.9
2023-04-24T10:06:46.881Z,33.9
2023-04-24T10:08:47.326Z,33.9
2023-04-24T10:10:46.994Z,33.1
2023-04-24T10:12:47.898Z,33.1
2023-04-24T10:14:48.671Z,32.2
2023-04-24T10:16:48.874Z,33.5
2023-04-24T10:18:49.007Z,32.9
2023-04-24T10:20:48.871Z,32.4
2023-04-24T10:22:50.409Z,33
2023-04-24T10:24:50.514Z,31.9
2023-04-24T10:26:50.149Z,31.6
2023-04-24T10:28:50.719Z,32.7
2023-04-24T10:30:53.150Z,31.9
2023-04-24T10:32:50.947Z,31.9
2023-04-24T10:34:51.472Z,31
2023-04-24T10:36:54.331Z,31.1
2023-04-24T10:38:53.260Z,32
2023-04-24T10:40:58.145Z,32
2023-04-24T10:42:53.663Z,32.6
2023-04-24T10:44:53.487Z,32.6
2023-04-24T10:46:55.668Z,32.7
2023-04-24T10:48:55.256Z,32.7
2023-04-24T10:50:54.716Z,32
2023-04-24T10:53:06.465Z,32
2023-04-24T10:54:55.875Z,32
2023-04-24T10:57:25.322Z,32.5
2023-04-24T10:58:56.451Z,32.5
2023-04-24T11:00:58.250Z,32.5
2023-04-24T11:02:57.799Z,32.5
2023-04-24T11:04:57.841Z,32.5
2023-04-24T11:06:58.727Z,31.8
2023-04-24T11:09:04.484Z,32.8
2023-04-24T11:11:02.623Z,32.5
2023-04-24T11:12:59.277Z,32.5
2023-04-24T11:15:02.294Z,32.5
2023-04-24T11:17:00.205Z,33.3
2023-04-24T11:19:02.904Z,33.3
2023-04-24T11:21:10.865Z,33.3
2023-04-24T11:23:04.521Z,31.6
2023-04-24T11:25:03.021Z,32.7
2023-04-24T11:27:08.051Z,32
2023-04-24T11:29:07.910Z,33.1
2023-04-24T11:31:32.382Z,33.3
2023-04-24T11:33:04.899Z,32.2
2023-04-24T11:35:05.755Z,32.2
2023-04-24T11:37:04.210Z,33.1
2023-04-24T11:39:05.232Z,32.5
2023-04-24T11:41:06.528Z,33.4
2023-04-24T11:43:07.822Z,32.8
2023-04-24T11:45:10.438Z,33.3
2023-04-24T11:47:06.535Z,33.1
2023-04-24T11:49:06.591Z,33.1
2023-04-24T11:51:06.936Z,33.9
2023-04-24T11:53:07.256Z,32.6
2023-04-24T11:55:22.717Z,32.6
2023-04-24T11:57:08.068Z,33.9
2023-04-24T11:59:08.511Z,32.7
2023-04-24T12:01:08.872Z,32.8
2023-04-24T12:03:10.807Z,32.8
2023-04-24T12:05:10.041Z,32
2023-04-24T12:07:10.370Z,32.2
2023-04-24T12:09:17.890Z,32.2
2023-04-24T12:11:10.868Z,33
2023-04-24T12:13:11.246Z,34.3
2023-04-24T12:15:11.759Z,33.1
2023-04-24T12:17:12.189Z,34.3
2023-04-24T12:19:12.414Z,32.7
2023-04-24T12:21:17.072Z,32.1
2023-04-24T12:23:13.222Z,32.8
2023-04-24T12:25:15.839Z,32.9
2023-04-24T12:27:20.420Z,32.9
2023-04-24T12:29:21.132Z,32.9
2023-04-24T12:31:15.279Z,32
2023-04-24T12:33:18.440Z,32.7
2023-04-24T12:35:21.224Z,33.3
2023-04-24T12:37:15.952Z,33.1
2023-04-24T12:39:16.461Z,33.8
2023-04-24T12:41:16.724Z,33.2
2023-04-24T12:43:19.022Z,32.5
2023-04-24T12:45:19.023Z,32.5
2023-04-24T12:47:17.887Z,31.5
2023-04-24T12:49:18.426Z,32.1
2023-04-24T12:51:18.658Z,31.6
2023-04-24T12:53:19.084Z,32.3
2023-04-24T12:55:19.456Z,32.9
2023-04-24T12:57:19.906Z,33.6
2023-04-24T12:59:20.277Z,33.4
2023-04-24T13:01:20.746Z,32.4
2023-04-24T13:03:21.472Z,33.1
2023-04-24T13:05:23.531Z,32.4
2023-04-24T13:07:21.984Z,32.6
2023-04-24T13:09:22.369Z,32.6
2023-04-24T13:11:22.490Z,32.6
2023-04-24T13:13:24.202Z,32.6
2023-04-24T13:15:23.314Z,32.6
2023-04-24T13:17:23.730Z,32.1
2023-04-24T13:19:25.602Z,32.1
2023-04-24T13:21:24.361Z,32.1
2023-04-24T13:23:24.911Z,31.7
2023-04-24T13:25:25.236Z,31.7
2023-04-24T13:27:25.641Z,32.5
2023-04-24T13:29:26.626Z,31.4
2023-04-24T13:31:26.555Z,31.4
2023-04-24T13:33:26.870Z,31.4
2023-04-24T13:35:27.145Z,31.9
2023-04-24T13:37:27.752Z,31.9
2023-04-24T13:39:27.946Z,31.9
2023-04-24T13:41:28.290Z,31.9
2023-04-24T13:43:28.796Z,32.4
2023-04-24T13:45:29.183Z,32.4
2023-04-24T13:47:29.452Z,32.1
2023-04-24T13:49:29.961Z,32.1
2023-04-24T13:51:30.610Z,32.3
2023-04-24T13:53:30.445Z,32.3
2023-04-24T13:55:30.943Z,32.6
2023-04-24T13:57:31.276Z,32.6
2023-04-24T13:59:31.814Z,32.7
2023-04-24T14:01:32.025Z,31.8
2023-04-24T14:03:34.020Z,32.8
2023-04-24T14:05:32.849Z,32.9
2023-04-24T14:07:33.043Z,32.9
2023-04-24T14:09:33.615Z,33.8
2023-04-24T14:11:34.882Z,32.5
2023-04-24T14:13:34.882Z,32.4
2023-04-24T14:15:36.664Z,32.1
2023-04-24T14:17:35.080Z,32.1
2023-04-24T14:19:35.664Z,32.1
2023-04-24T14:21:35.785Z,32.1
2023-04-24T14:23:36.137Z,32.9
2023-04-24T14:25:36.761Z,32.8
2023-04-24T14:27:37.020Z,32.8
2023-04-24T14:29:37.313Z,32.8
2023-04-24T14:31:37.760Z,32
2023-04-24T14:33:38.081Z,32
2023-04-24T14:35:38.588Z,32.6
2023-04-24T14:37:38.712Z,32.6
2023-04-24T14:39:39.194Z,32.6
2023-04-24T14:41:39.510Z,33.2
2023-04-24T14:43:40.052Z,33.2
2023-04-24T14:45:40.419Z,32.8
2023-04-24T14:47:40.601Z,32.4
2023-04-24T14:49:40.998Z,32.4
2023-04-24T14:51:41.537Z,33.4
2023-04-24T14:53:41.758Z,32.1
2023-04-24T14:55:42.310Z,33.4
2023-04-24T14:57:43.320Z,33.4
2023-04-24T14:59:42.895Z,33.4
2023-04-24T15:01:43.330Z,34.2
2023-04-24T15:03:43.791Z,34.2
2023-04-24T15:05:44.124Z,33.7
2023-04-24T15:07:44.391Z,33.3
2023-04-24T15:09:44.763Z,33.8
2023-04-24T15:11:45.162Z,34.3
2023-04-24T15:13:46.080Z,33.2
2023-04-24T15:15:47.168Z,32.9
2023-04-24T15:17:46.360Z,32.9
2023-04-24T15:19:46.659Z,32.9
2023-04-24T15:21:46.913Z,32.9
2023-04-24T15:23:47.658Z,32.9
2023-04-24T15:25:48.214Z,34
2023-04-24T15:27:48.077Z,33.5
2023-04-24T15:29:48.504Z,34.1
2023-04-24T15:31:48.780Z,34.1
2023-04-24T15:33:49.421Z,34.1
2023-04-24T15:35:49.727Z,34
2023-04-24T15:37:49.801Z,33.6
2023-04-24T15:39:50.783Z,33.4
2023-04-24T15:41:50.630Z,34.5
2023-04-24T15:43:50.854Z,33.9
2023-04-24T15:45:51.312Z,34.1
2023-04-24T15:47:51.608Z,34.1
2023-04-24T15:49:52.550Z,34.1
2023-04-24T15:51:52.226Z,34.1
2023-04-24T15:53:52.596Z,34.6
2023-04-24T15:55:53.990Z,34.3
2023-04-24T15:57:53.332Z,34.3
2023-04-24T15:59:53.650Z,34.3
2023-04-24T16:01:54.060Z,34.3
2023-04-24T16:03:54.466Z,34.9
2023-04-24T16:05:54.534Z,34.9
2023-04-24T16:07:55.912Z,34.9
2023-04-24T16:09:55.222Z,35.4
2023-04-24T16:11:55.923Z,35.4
2023-04-24T16:13:55.892Z,35.4
2023-04-24T16:15:56.732Z,35.2
2023-04-24T16:17:56.752Z,35.2
2023-04-24T16:19:56.996Z,35.2
2023-04-24T16:21:57.293Z,35.2
2023-04-24T16:23:57.550Z,35.2
2023-04-24T16:25:58.008Z,36.3
2023-04-24T16:27:58.401Z,36.3
2023-04-24T16:29:59.148Z,36.3
2023-04-24T16:31:58.780Z,36.3
2023-04-24T16:33:59.083Z,36.3
2023-04-24T16:35:59.561Z,36.3
2023-04-24T16:37:59.669Z,36.3
2023-04-24T16:40:00.053Z,36.9
2023-04-24T16:42:01.061Z,36.9
2023-04-24T16:44:00.514Z,36.9
2023-04-24T16:46:01.564Z,36.7
2023-04-24T16:48:01.728Z,36.7
2023-04-24T16:50:01.620Z,37.5
2023-04-24T16:52:02.149Z,37.5
2023-04-24T16:54:02.153Z,37.5
2023-04-24T16:56:02.695Z,37
2023-04-24T16:58:02.684Z,37
2023-04-24T17:00:03.954Z,37
2023-04-24T17:02:03.325Z,37
2023-04-24T17:04:03.873Z,37
2023-04-24T17:06:04.265Z,37.1
2023-04-24T17:08:04.312Z,37.1
2023-04-24T17:10:05.542Z,37.5
2023-04-24T17:12:05.257Z,37.5
2023-04-24T17:14:05.140Z,37.5
2023-04-24T17:16:05.804Z,38.2
2023-04-24T17:18:05.846Z,38.2
2023-04-24T17:20:18.592Z,39
2023-04-24T17:22:06.624Z,40.2
2023-04-24T17:24:06.698Z,39.3
2023-04-24T17:26:06.818Z,40.5
2023-04-24T17:28:22.341Z,39.7
2023-04-24T17:30:08.593Z,40.5
2023-04-24T17:32:07.796Z,39.9
2023-04-24T17:34:07.795Z,39.9
2023-04-24T17:36:08.820Z,40.2
2023-04-24T17:38:08.443Z,40.4
2023-04-24T17:40:09.449Z,40.4
2023-04-24T17:42:08.917Z,41
2023-04-24T17:44:09.121Z,40.7
2023-04-24T17:46:09.642Z,41.2
2023-04-24T17:48:09.702Z,41.2
2023-04-24T17:50:10.332Z,41.2
2023-04-24T17:52:10.283Z,41.2
2023-04-24T17:54:10.441Z,41.2
2023-04-24T17:56:10.744Z,40.9
2023-04-24T17:58:11.287Z,42.7
2023-04-24T18:00:12.533Z,40.9
2023-04-24T18:02:11.524Z,42
2023-04-24T18:04:11.965Z,41
2023-04-24T18:06:12.011Z,42.1
2023-04-24T18:08:12.198Z,41.4
2023-04-24T18:10:12.506Z,41.4
2023-04-24T18:12:12.669Z,41.4
2023-04-24T18:14:12.976Z,42
2023-04-24T18:16:13.266Z,43.1
2023-04-24T18:18:13.746Z,42.4
2023-04-24T18:20:15.347Z,42.4
2023-04-24T18:22:13.882Z,43.1
2023-04-24T18:24:14.086Z,43
2023-04-24T18:26:14.417Z,43.7
2023-04-24T18:28:14.625Z,43.1
2023-04-24T18:30:15.192Z,43.1
2023-04-24T18:32:15.179Z,43.1
2023-04-24T18:34:15.299Z,43.1
2023-04-24T18:36:15.632Z,43.2
2023-04-24T18:38:15.799Z,43.6
2023-04-24T18:40:16.851Z,43.6
2023-04-24T18:42:16.404Z,44.4
2023-04-24T18:44:16.918Z,44.3
2023-04-24T18:46:16.875Z,44.6
2023-04-24T18:48:16.891Z,44.8
2023-04-24T18:50:17.213Z,44.1
2023-04-24T18:52:17.339Z,44.2
2023-04-24T18:54:17.551Z,44.9
2023-04-24T18:56:17.775Z,44.4
2023-04-24T18:58:18.060Z,45.4
2023-04-24T19:00:18.441Z,44.5
2023-04-24T19:02:18.720Z,44.2
2023-04-24T19:04:18.684Z,44.8
2023-04-24T19:06:18.836Z,44.7
2023-04-24T19:08:19.098Z,44.7
2023-04-24T19:10:19.385Z,44.7
2023-04-24T19:12:21.614Z,46.3
2023-04-24T19:14:19.839Z,45.2
2023-04-24T19:16:20.100Z,45.1
2023-04-24T19:18:20.117Z,45.1
2023-04-24T19:20:20.419Z,45.1
2023-04-24T19:22:20.694Z,45.7
2023-04-24T19:24:20.799Z,45
2023-04-24T19:26:21.086Z,45.9
2023-04-24T19:28:21.312Z,45.9
2023-04-24T19:30:21.529Z,45.9
2023-04-24T19:32:21.732Z,45.9
2023-04-24T19:34:22.088Z,45.9
2023-04-24T19:36:22.160Z,45.8
2023-04-24T19:38:22.218Z,45.8
2023-04-24T19:40:22.493Z,46.8
2023-04-24T19:42:31.838Z,45.9
2023-04-24T19:44:22.892Z,46.5
2023-04-24T19:46:23.665Z,47
2023-04-24T19:48:23.170Z,46.9
2023-04-24T19:50:23.478Z,46.4
2023-04-24T19:52:23.478Z,46.4
2023-04-24T19:54:23.764Z,45.8
2023-04-24T19:56:23.964Z,46.2
2023-04-24T19:58:24.157Z,45.9
2023-04-24T20:00:24.171Z,45.9
2023-04-24T20:02:24.981Z,46.6
2023-04-24T20:04:24.796Z,46
2023-04-24T20:06:24.876Z,46.6
2023-04-24T20:08:24.982Z,46.6
2023-04-24T20:10:25.168Z,46.1
2023-04-24T20:12:25.522Z,46.1
2023-04-24T20:14:25.739Z,46
2023-04-24T20:16:25.782Z,45.8
2023-04-24T20:18:25.986Z,45.8
2023-04-24T20:20:26.745Z,45.8
2023-04-24T20:22:26.297Z,45.8
2023-04-24T20:24:26.540Z,45.8
2023-04-24T20:26:26.789Z,46.6
2023-04-24T20:28:27.599Z,46.6
2023-04-24T20:30:27.080Z,46.6
2023-04-24T20:32:27.474Z,47.2
2023-04-24T20:34:27.488Z,46.5
2023-04-24T20:36:27.615Z,46.4
2023-04-24T20:38:27.843Z,47.2
2023-04-24T20:40:28.190Z,47.3
2023-04-24T20:42:28.136Z,47.3
2023-04-24T20:44:28.513Z,47.3
2023-04-24T20:46:29.088Z,47.3
2023-04-24T20:48:28.708Z,47.3
2023-04-24T20:50:28.978Z,47.3
2023-04-24T20:52:29.089Z,47.3
2023-04-24T20:54:29.394Z,47.3
2023-04-24T20:56:30.366Z,47.6
2023-04-24T20:58:29.693Z,46.7
2023-04-24T21:00:29.872Z,47.3
2023-04-24T21:02:30.466Z,46.6
2023-04-24T21:04:30.220Z,46.6
2023-04-24T21:06:30.304Z,47.2
2023-04-24T21:08:30.859Z,47.2
2023-04-24T21:10:30.724Z,47.8
2023-04-24T21:12:30.878Z,46.9
2023-04-24T21:14:31.156Z,47.4
2023-04-24T21:16:31.380Z,47.4
2023-04-24T21:18:31.508Z,47.4
2023-04-24T21:20:31.946Z,47.4
2023-04-24T21:22:31.836Z,47.4
2023-04-24T21:24:32.237Z,47.4
2023-04-24T21:26:32.500Z,47.8
2023-04-24T21:28:32.717Z,48.1
2023-04-24T21:30:32.812Z,48.1
2023-04-24T21:32:33.084Z,48.1
2023-04-24T21:34:33.152Z,49
2023-04-24T21:36:33.276Z,48.9
2023-04-24T21:38:33.401Z,48.9
2023-04-24T21:40:33.682Z,48.9
2023-04-24T21:42:33.759Z,48.9
2023-04-24T21:44:34.290Z,48.9
2023-04-24T21:46:34.481Z,49
2023-04-24T21:48:34.401Z,49
2023-04-24T21:50:34.513Z,49
2023-04-24T21:52:34.799Z,49.7
2023-04-24T21:54:34.905Z,49.7
2023-04-24T21:56:35.279Z,49.6
2023-04-24T21:58:35.760Z,49.6
2023-04-24T22:00:36.169Z,49.6
2023-04-24T22:02:35.900Z,49.6
2023-04-24T22:04:35.976Z,50.3
2023-04-24T22:06:36.413Z,50.2
2023-04-24T22:08:36.373Z,50.2
2023-04-24T22:10:36.383Z,50.2
2023-04-24T22:12:36.535Z,50.3
2023-04-24T22:14:36.756Z,50.3
2023-04-24T22:16:37.109Z,50.5
2023-04-24T22:18:46.450Z,50.9
2023-04-24T22:20:37.523Z,50.2
2023-04-24T22:22:38.356Z,50.2
2023-04-24T22:24:37.736Z,50.2
2023-04-24T22:26:37.766Z,50.2
2023-04-24T22:28:37.860Z,50.2
2023-04-24T22:30:38.133Z,50
2023-04-24T22:32:38.408Z,50.5
2023-04-24T22:34:38.451Z,50.5
2023-04-24T22:36:38.607Z,50.4
2023-04-24T22:38:38.857Z,50.4
2023-04-24T22:40:39.047Z,50.4
2023-04-24T22:42:39.328Z,50.4
2023-04-24T22:44:39.413Z,51.3
2023-04-24T22:46:39.789Z,50.3
2023-04-24T22:48:39.730Z,50.3
2023-04-24T22:50:40.331Z,50.3
2023-04-24T22:52:39.995Z,50.3
2023-04-24T22:54:40.687Z,50.3
2023-04-24T22:56:41.127Z,50.9
2023-04-24T22:58:40.541Z,50.2
2023-04-24T23:00:40.701Z,50.9
2023-04-24T23:02:41.815Z,50.3
2023-04-24T23:04:41.031Z,50.3
2023-04-24T23:06:41.159Z,51.1
2023-04-24T23:08:41.382Z,51.1
2023-04-24T23:10:41.571Z,50.3
2023-04-24T23:12:41.739Z,50.3
2023-04-24T23:14:41.911Z,51
2023-04-24T23:16:42.035Z,50.9
2023-04-24T23:18:42.125Z,50.4
2023-04-24T23:20:42.465Z,50.4
2023-04-24T23:22:42.620Z,50.4
2023-04-24T23:24:42.714Z,50.4
2023-04-24T23:26:42.872Z,51.2
2023-04-24T23:28:42.961Z,50.6
2023-04-24T23:30:43.126Z,50.6
2023-04-24T23:32:43.436Z,50.6
2023-04-24T23:34:43.577Z,50.6
2023-04-24T23:36:43.756Z,50.9
2023-04-24T23:38:50.316Z,50.9
2023-04-24T23:40:44.167Z,50.9
2023-04-24T23:42:44.658Z,50.9
2023-04-24T23:44:44.308Z,50.9
2023-04-24T23:46:44.573Z,51.6
2023-04-24T23:48:44.754Z,51
2023-04-24T23:50:44.882Z,51
2023-04-24T23:52:45.220Z,51.8
2023-04-24T23:54:45.467Z,51.2
2023-04-24T23:56:45.700Z,51.5
2023-04-24T23:58:45.701Z,52.1
